Terminal Aerodrome Forecast
Issued by NWS

Home | Current Version | Previous Version | Text Only | Print | Product List | Glossary On
Versions: 1 2 3 4 5 6 7 8 9 10 11 12 13 14 15 16 17 18 19 20 21 22 23 24 25
000
FTUS42 KMFL 300127 AAB
TAFTMB
TAF AMD
KTMB 300127Z 3001/3024 09016G22KT P6SM SCT025 BKN040 BKN250
      TEMPO 3001/3003 -RA BKN020
     FM300300 10012G18KT P6SM SCT030
     FM301400 11016G22KT P6SM SCT030 BKN060
     FM301800 13020G28KT P6SM SCT025 BKN050=

USA.gov is the U.S. government's official web portal to all federal, state and local government web resources and services.